Grantville, Georgia
Current Conditions -  °F | °C
As of 1:55 AM on Sunday 21 Dec 2014 (Local Time) from KCCO Reporting Station
Overcast Overcast  
Wind Chill: 46°   Ceiling: 700
Heat Index: 48°   Visibility: 10mi
Dew Point: 47°   Wind: 6mph
Humidity: 96%   Direction: 70°ENE
Pressure: 30.18"   Gusts: NA
Location:  33.23°N, 84.84°W
Report Text: KCCO 210655Z AUTO 07005KT 10SM OVC007 09/08 A3018 RMK AO2 T00900084
Loading
Personal Weather Stations






























Interactive Weather Map New forecast layout! Learn more

10-Day Weather Forecast

Advertisements
Track Severe Weather on mobile